Time;durP1;ratioP1;P1;durP2;ratioP2;P2;SDS_P1;SDS_P2;PMS_P1;PMS_P2;Temp;Humidity;BMP_temperature;BMP_pressure;BME280_temperature;BME280_humidity;BME280_pressure;Samples;Min_cycle;Max_cycle;Signal;HPM_P1;HPM_P2
2023/08/17 00:01:09;;;;;;;0.00;0.00;;;;;;;25.03;52.72;102215.53;5053152;28;20044;-63
2023/08/17 00:03:34;;;;;;;0.00;0.00;;;;;;;25.17;52.07;102209.09;5053161;28;20039;-64
2023/08/17 00:06:00;;;;;;;0.00;0.00;;;;;;;24.76;53.27;102217.97;5052977;28;20045;-63
2023/08/17 00:08:25;;;;;;;0.05;0.05;;;;;;;25.73;50.08;102214.06;5053140;28;20029;-63
2023/08/17 00:10:51;;;;;;;0.00;0.00;;;;;;;25.73;50.47;102214.84;5052842;28;20021;-64
2023/08/17 00:13:16;;;;;;;0.10;0.10;;;;;;;25.76;50.04;102218.97;5052657;28;20094;-64
2023/08/17 00:15:41;;;;;;;0.00;0.00;;;;;;;25.19;51.82;102203.31;5051922;28;20447;-64
2023/08/17 00:18:07;;;;;;;0.00;0.00;;;;;;;24.61;53.93;102216.13;5052096;28;20025;-64
2023/08/17 00:20:32;;;;;;;0.00;0.00;;;;;;;25.50;51.98;102214.84;5034190;28;20029;-64
2023/08/17 00:22:58;;;;;;;0.00;0.00;;;;;;;25.76;50.19;102208.78;5051808;28;20036;-63
2023/08/17 00:25:23;;;;;;;0.05;0.05;;;;;;;25.10;52.51;102210.56;5052144;28;20047;-65
2023/08/17 00:27:49;;;;;;;0.00;0.00;;;;;;;25.92;50.15;102214.91;5070272;28;20036;-64
2023/08/17 00:30:14;;;;;;;0.00;0.00;;;;;;;25.01;52.96;102209.50;5057465;28;20490;-64
2023/08/17 00:32:39;;;;;;;0.00;0.00;;;;;;;25.39;51.94;102208.63;5051760;28;20040;-64
2023/08/17 00:35:05;;;;;;;0.00;0.00;;;;;;;25.72;50.61;102213.22;5051649;28;20215;-63
2023/08/17 00:37:31;;;;;;;0.00;0.00;;;;;;;25.12;52.44;102205.56;5052041;28;20434;-64
2023/08/17 00:39:56;;;;;;;0.00;0.00;;;;;;;25.54;51.22;102210.41;5051696;28;20025;-64
2023/08/17 00:42:22;;;;;;;0.00;0.00;;;;;;;25.35;51.85;102195.72;5051509;28;20044;-64
2023/08/17 00:44:47;;;;;;;0.00;0.00;;;;;;;25.05;52.85;102189.41;5060390;28;20075;-63
2023/08/17 00:47:14;;;;;;;0.00;0.00;;;;;;;25.44;51.27;102193.97;5071845;28;20024;-63
2023/08/17 00:49:39;;;;;;;0.00;0.00;;;;;;;24.61;54.21;102190.56;5072843;28;20138;-63
2023/08/17 00:52:05;;;;;;;0.00;0.00;;;;;;;24.93;53.46;102179.88;5072343;28;20044;-63
2023/08/17 00:54:31;;;;;;;0.00;0.00;;;;;;;25.67;51.07;102182.97;5072404;28;20040;-64
2023/08/17 00:56:56;;;;;;;0.00;0.00;;;;;;;25.91;50.43;102181.03;5069208;28;20040;-63
2023/08/17 00:59:23;;;;;;;0.05;0.05;;;;;;;25.42;51.25;102182.44;5052088;28;20032;-62
2023/08/17 01:01:49;;;;;;;0.00;0.00;;;;;;;25.31;51.30;102180.91;5053034;28;20033;-64
2023/08/17 01:04:14;;;;;;;0.00;0.00;;;;;;;25.61;51.37;102172.34;5051922;28;20056;-63
2023/08/17 01:06:40;;;;;;;0.00;0.00;;;;;;;25.50;51.50;102177.13;5051799;28;20180;-64
2023/08/17 01:09:06;;;;;;;0.00;0.00;;;;;;;25.53;51.22;102178.50;5051847;28;20071;-64
2023/08/17 01:11:41;;;;;;;0.00;0.00;;;;;;;25.07;53.12;102172.59;5051541;28;20102;-65
2023/08/17 01:14:32;;;;;;;0.00;0.00;;;;;;;25.28;52.20;102183.13;5033675;28;20029;-63
2023/08/17 01:17:06;;;;;;;0.00;0.00;;;;;;;25.19;52.28;102171.09;5051734;28;20029;-64
2023/08/17 01:19:32;;;;;;;0.00;0.00;;;;;;;24.36;54.76;102169.56;5052416;28;20028;-63
2023/08/17 01:22:03;;;;;;;0.03;0.03;;;;;;;24.92;53.50;102165.28;5048488;28;20041;-64
2023/08/17 01:24:29;;;;;;;0.00;0.00;;;;;;;25.10;52.43;102169.28;5066354;28;20098;-63
2023/08/17 01:26:54;;;;;;;0.10;0.10;;;;;;;24.49;54.47;102168.91;5070890;28;20032;-64
2023/08/17 01:29:20;;;;;;;0.10;0.10;;;;;;;24.79;53.31;102173.38;5071350;28;20496;-64
2023/08/17 01:32:04;;;;;;;0.00;0.00;;;;;;;24.74;53.65;102170.69;5058252;28;20025;-63
2023/08/17 01:34:35;;;;;;;0.10;0.10;;;;;;;25.66;50.75;102175.84;5051782;28;20041;-65
2023/08/17 01:37:06;;;;;;;0.10;0.10;;;;;;;25.86;50.21;102185.78;5051230;28;20043;-65
2023/08/17 01:39:36;;;;;;;0.10;0.10;;;;;;;26.28;49.05;102179.47;5051447;28;20064;-65
2023/08/17 01:42:04;;;;;;;0.10;0.10;;;;;;;24.83;52.49;102179.97;5051298;28;20079;-64
2023/08/17 01:44:29;;;;;;;0.10;0.10;;;;;;;25.75;50.59;102176.03;5057716;28;20055;-64
2023/08/17 01:46:55;;;;;;;0.10;0.10;;;;;;;25.79;49.85;102186.13;5071230;28;20449;-63
2023/08/17 01:49:20;;;;;;;0.03;0.03;;;;;;;25.77;50.19;102179.28;5071638;28;20090;-64
2023/08/17 01:51:45;;;;;;;0.10;0.10;;;;;;;25.18;52.24;102176.88;5070987;28;20040;-64
2023/08/17 01:54:11;;;;;;;0.10;0.10;;;;;;;25.24;51.94;102178.47;5061470;28;20037;-63
2023/08/17 01:56:36;;;;;;;0.00;0.00;;;;;;;25.50;51.15;102170.78;5050953;28;20068;-65
2023/08/17 01:59:01;;;;;;;0.00;0.00;;;;;;;24.97;52.22;102168.00;5050971;28;20170;-64
2023/08/17 02:01:28;;;;;;;0.10;0.10;;;;;;;25.19;52.46;102170.28;5051546;28;20032;-63
2023/08/17 02:03:53;;;;;;;0.00;0.00;;;;;;;25.14;51.67;102165.63;5050973;28;20087;-64
2023/08/17 02:06:18;;;;;;;0.10;0.10;;;;;;;24.43;54.60;102161.84;5050618;28;20049;-64
2023/08/17 02:08:45;;;;;;;0.00;0.00;;;;;;;25.30;51.84;102154.50;5050741;28;20035;-63
2023/08/17 02:11:10;;;;;;;0.10;0.10;;;;;;;25.12;52.44;102161.53;5051040;28;20040;-64
2023/08/17 02:13:37;;;;;;;0.10;0.10;;;;;;;25.00;53.11;102159.16;5051032;28;20048;-63
2023/08/17 02:16:05;;;;;;;0.10;0.10;;;;;;;25.48;51.48;102162.00;5050655;28;20152;-63
2023/08/17 02:18:32;;;;;;;0.00;0.00;;;;;;;24.98;53.23;102155.09;5054798;28;20067;-63
2023/08/17 02:20:58;;;;;;;0.10;0.10;;;;;;;25.57;51.14;102166.56;5070808;28;20059;-64
2023/08/17 02:23:23;;;;;;;0.10;0.10;;;;;;;25.05;52.63;102161.88;5053712;28;20029;-64
2023/08/17 02:25:49;;;;;;;0.10;0.10;;;;;;;25.28;52.33;102166.59;5050986;28;20473;-64
2023/08/17 02:28:14;;;;;;;0.00;0.00;;;;;;;25.25;52.37;102158.94;5050321;28;20048;-63
2023/08/17 02:30:40;;;;;;;0.08;0.08;;;;;;;25.06;52.17;102157.22;5032270;28;20029;-63
2023/08/17 02:33:05;;;;;;;0.08;0.08;;;;;;;24.98;52.76;102158.63;5050314;28;20032;-64
2023/08/17 02:35:30;;;;;;;0.00;0.00;;;;;;;24.83;53.43;102156.03;5050278;28;20385;-64
2023/08/17 02:37:56;;;;;;;0.10;0.10;;;;;;;24.60;54.07;102150.44;5050515;28;20025;-64
2023/08/17 02:40:21;;;;;;;0.10;0.10;;;;;;;24.65;54.42;102147.66;5050854;28;20032;-63
2023/08/17 02:42:46;;;;;;;0.00;0.00;;;;;;;25.08;52.37;102153.03;5064774;28;20037;-63
2023/08/17 02:45:12;;;;;;;0.10;0.10;;;;;;;25.33;51.86;102151.97;5062562;28;20396;-64
2023/08/17 02:47:37;;;;;;;0.08;0.08;;;;;;;25.17;52.06;102154.06;5070311;28;20024;-63
2023/08/17 02:50:03;;;;;;;0.03;0.03;;;;;;;25.28;51.77;102149.25;5070418;28;20039;-64
2023/08/17 02:52:28;;;;;;;0.10;0.10;;;;;;;24.13;54.90;102151.03;5070639;28;20380;-65
2023/08/17 02:54:54;;;;;;;0.05;0.05;;;;;;;24.42;54.45;102151.94;5054574;28;20036;-63
2023/08/17 02:57:20;;;;;;;0.10;0.10;;;;;;;24.75;53.38;102147.56;5049884;28;20048;-63
2023/08/17 02:59:45;;;;;;;0.10;0.10;;;;;;;23.81;56.56;102147.88;5049996;28;20108;-63
2023/08/17 03:02:10;;;;;;;0.10;0.10;;;;;;;24.79;53.71;102143.97;5050003;28;20619;-64
2023/08/17 03:04:36;;;;;;;0.00;0.00;;;;;;;24.48;53.86;102141.72;5050527;28;20520;-63
2023/08/17 03:07:01;;;;;;;0.00;0.00;;;;;;;24.28;54.87;102140.78;5014001;28;20068;-65
2023/08/17 03:09:26;;;;;;;0.10;0.10;;;;;;;24.46;54.54;102149.44;5030013;28;20049;-64
2023/08/17 03:11:52;;;;;;;0.10;0.10;;;;;;;24.12;55.31;102143.88;5030193;28;20033;-65
2023/08/17 03:14:17;;;;;;;0.10;0.10;;;;;;;24.28;54.84;102149.00;5029774;28;20373;-64
2023/08/17 03:16:43;;;;;;;0.10;0.10;;;;;;;24.74;53.90;102149.53;5032301;28;20033;-63
2023/08/17 03:19:10;;;;;;;0.00;0.00;;;;;;;24.77;53.18;102145.34;5029330;28;20033;-64
2023/08/17 03:21:36;;;;;;;0.00;0.00;;;;;;;25.17;51.72;102151.31;5030025;28;20115;-63
2023/08/17 03:24:01;;;;;;;0.08;0.08;;;;;;;24.67;53.69;102153.69;5029947;28;20705;-64
2023/08/17 03:26:27;;;;;;;0.00;0.00;;;;;;;25.48;51.53;102157.34;5029881;28;20045;-63
2023/08/17 03:28:52;;;;;;;0.03;0.03;;;;;;;25.03;52.69;102147.59;5029733;28;20813;-63
2023/08/17 03:31:20;;;;;;;0.00;0.00;;;;;;;24.31;54.68;102155.88;5030287;28;20025;-63
2023/08/17 03:33:46;;;;;;;0.00;0.00;;;;;;;25.04;52.66;102149.22;5029758;28;20037;-64
2023/08/17 03:36:11;;;;;;;0.10;0.10;;;;;;;25.12;52.64;102150.53;5029821;28;20030;-63
2023/08/17 03:38:39;;;;;;;0.05;0.05;;;;;;;24.92;53.02;102143.28;5029764;28;20040;-64
2023/08/17 03:41:04;;;;;;;0.10;0.10;;;;;;;24.25;55.32;102146.00;5029640;28;20030;-64
2023/08/17 03:43:30;;;;;;;0.10;0.10;;;;;;;24.48;54.94;102133.47;5030189;28;20017;-64
2023/08/17 03:45:55;;;;;;;0.00;0.00;;;;;;;24.73;53.47;102138.78;5029811;28;20534;-65
2023/08/17 03:48:22;;;;;;;0.00;0.00;;;;;;;24.51;54.80;102141.16;5029670;28;20103;-63
2023/08/17 03:50:51;;;;;;;0.10;0.10;;;;;;;24.06;55.93;102139.53;5029687;28;20493;-63
2023/08/17 03:53:16;;;;;;;0.00;0.00;;;;;;;24.90;53.88;102140.00;5029588;28;20118;-64
2023/08/17 03:55:48;;;;;;;0.00;0.00;;;;;;;24.68;54.53;102138.81;5029929;28;20057;-64
2023/08/17 03:58:14;;;;;;;0.10;0.10;;;;;;;23.66;57.08;102142.44;5029389;28;20053;-63
2023/08/17 04:00:40;;;;;;;0.00;0.00;;;;;;;24.43;54.22;102137.09;5029448;28;20042;-65
2023/08/17 04:03:06;;;;;;;0.00;0.00;;;;;;;23.72;57.29;102142.16;5009353;28;20037;-64
2023/08/17 04:05:32;;;;;;;0.00;0.00;;;;;;;23.83;57.09;102141.00;5015836;28;20116;-64
2023/08/17 04:08:01;;;;;;;0.00;0.00;;;;;;;23.61;57.44;102139.72;5039453;28;20452;-64
2023/08/17 04:10:27;;;;;;;0.10;0.10;;;;;;;23.75;56.80;102138.84;5039959;28;20377;-62
2023/08/17 04:12:52;;;;;;;0.05;0.05;;;;;;;23.62;57.26;102138.63;5052021;28;20041;-66
2023/08/17 04:15:18;;;;;;;0.10;0.10;;;;;;;23.85;57.35;102140.72;5049132;28;20037;-64
2023/08/17 04:17:43;;;;;;;0.00;0.00;;;;;;;23.80;57.77;102136.09;5048594;28;20036;-64
2023/08/17 04:20:09;;;;;;;0.10;0.10;;;;;;;23.79;57.07;102139.09;5049069;28;20384;-65
2023/08/17 04:22:34;;;;;;;0.00;0.00;;;;;;;23.97;57.13;102132.97;5049633;28;20013;-63
2023/08/17 04:25:00;;;;;;;0.10;0.10;;;;;;;23.68;57.89;102143.00;5048897;28;20081;-64
2023/08/17 04:27:25;;;;;;;0.00;0.00;;;;;;;24.54;54.84;102126.84;5048645;28;20041;-63
2023/08/17 04:29:50;;;;;;;0.00;0.00;;;;;;;23.07;59.54;102132.16;5049172;28;20072;-63
2023/08/17 04:32:16;;;;;;;0.10;0.10;;;;;;;24.15;56.54;102124.94;5052580;28;20040;-64
2023/08/17 04:34:45;;;;;;;0.00;0.00;;;;;;;23.87;57.27;102125.59;5052727;28;20029;-64
2023/08/17 04:37:11;;;;;;;0.00;0.00;;;;;;;24.65;55.08;102123.72;5052620;28;20035;-64
2023/08/17 04:39:36;;;;;;;0.10;0.10;;;;;;;24.39;55.73;102125.84;5052392;28;20033;-64
2023/08/17 04:42:03;;;;;;;0.00;0.00;;;;;;;24.32;55.83;102124.53;5052560;28;20033;-63
2023/08/17 04:44:29;;;;;;;0.08;0.08;;;;;;;24.66;55.03;102127.28;5052138;28;20820;-65
2023/08/17 04:46:54;;;;;;;0.10;0.10;;;;;;;24.76;53.91;102133.56;5050320;28;20033;-64
2023/08/17 04:49:19;;;;;;;0.03;0.03;;;;;;;24.79;54.10;102134.91;5052814;28;20029;-64
2023/08/17 04:51:45;;;;;;;0.03;0.03;;;;;;;25.07;53.71;102134.09;5050617;28;20040;-65
2023/08/17 04:54:10;;;;;;;0.10;0.10;;;;;;;25.03;53.72;102130.28;5052525;28;20060;-63
2023/08/17 04:56:35;;;;;;;0.10;0.10;;;;;;;24.91;54.23;102124.34;5051849;28;20095;-64
2023/08/17 04:59:01;;;;;;;0.00;0.00;;;;;;;24.77;54.75;102126.94;5052011;28;20025;-64
2023/08/17 05:01:26;;;;;;;0.10;0.10;;;;;;;24.91;54.19;102116.91;5052724;28;20047;-65
2023/08/17 05:03:52;;;;;;;0.10;0.10;;;;;;;25.02;53.56;102123.16;5051900;28;20071;-64
2023/08/17 05:06:17;;;;;;;0.03;0.03;;;;;;;24.78;54.41;102119.53;5024350;28;20045;-63
2023/08/17 05:08:43;;;;;;;0.10;0.10;;;;;;;25.46;51.77;102125.69;5048086;28;20036;-64
2023/08/17 05:11:08;;;;;;;0.05;0.05;;;;;;;24.30;55.56;102121.25;5051889;28;20033;-64
2023/08/17 05:13:34;;;;;;;0.00;0.00;;;;;;;24.32;56.01;102124.53;5052360;28;20021;-63
2023/08/17 05:15:59;;;;;;;0.10;0.10;;;;;;;24.69;55.00;102126.69;5034079;28;20048;-64
2023/08/17 05:18:24;;;;;;;0.10;0.10;;;;;;;24.79;54.68;102118.41;5031737;28;20091;-63
2023/08/17 05:20:50;;;;;;;0.00;0.00;;;;;;;24.95;54.20;102128.16;5031774;28;20446;-63
2023/08/17 05:23:15;;;;;;;0.00;0.00;;;;;;;24.04;56.67;102117.84;5031899;28;20034;-64
2023/08/17 05:25:41;;;;;;;0.00;0.00;;;;;;;24.78;54.95;102119.53;5031890;28;20034;-64
2023/08/17 05:28:06;;;;;;;0.00;0.00;;;;;;;24.31;56.07;102128.41;5031106;28;20402;-64
2023/08/17 05:30:32;;;;;;;0.00;0.00;;;;;;;24.42;56.21;102125.28;5033271;28;20040;-64
2023/08/17 05:32:58;;;;;;;0.10;0.10;;;;;;;24.40;56.35;102130.25;5044839;28;20051;-62
2023/08/17 05:35:23;;;;;;;0.00;0.00;;;;;;;24.42;56.15;102118.97;5051367;28;20037;-63
2023/08/17 05:37:49;;;;;;;0.00;0.00;;;;;;;24.60;55.80;102118.28;5048528;28;20040;-64
2023/08/17 05:40:15;;;;;;;0.10;0.10;;;;;;;23.36;58.78;102124.16;5040978;28;20496;-63
2023/08/17 05:42:40;;;;;;;0.00;0.00;;;;;;;24.42;56.42;102122.53;5035933;28;20036;-63
2023/08/17 05:45:06;;;;;;;0.05;0.05;;;;;;;24.69;55.26;102129.44;5038789;28;20044;-63
2023/08/17 05:47:31;;;;;;;0.05;0.05;;;;;;;25.29;53.69;102123.41;5041696;28;20150;-63
2023/08/17 05:49:57;;;;;;;0.10;0.10;;;;;;;25.06;54.60;102126.97;5030558;28;20017;-64
2023/08/17 05:52:22;;;;;;;0.03;0.03;;;;;;;24.79;54.45;102121.97;5031150;28;20028;-63
2023/08/17 05:54:47;;;;;;;0.00;0.00;;;;;;;23.64;58.03;102122.69;5012119;28;20036;-64
2023/08/17 05:57:14;;;;;;;0.10;0.10;;;;;;;23.77;58.67;102119.31;5029834;28;20069;-64
2023/08/17 05:59:39;;;;;;;0.00;0.00;;;;;;;24.11;57.58;102125.78;5029537;28;20033;-64
2023/08/17 06:02:05;;;;;;;0.08;0.08;;;;;;;24.39;56.65;102122.28;5030256;28;20025;-63
2023/08/17 06:04:30;;;;;;;0.00;0.00;;;;;;;24.22;57.35;102128.16;5037829;28;20104;-63
2023/08/17 06:06:56;;;;;;;0.00;0.00;;;;;;;23.99;58.46;102134.31;5012506;28;20053;-64
2023/08/17 06:09:21;;;;;;;0.00;0.00;;;;;;;24.69;55.76;102129.44;5030682;28;20042;-64
2023/08/17 06:11:47;;;;;;;0.00;0.00;;;;;;;24.81;55.63;102129.94;5012569;28;20056;-64
2023/08/17 06:14:12;;;;;;;0.00;0.00;;;;;;;24.93;55.04;102133.94;5037932;28;20041;-64
2023/08/17 06:16:38;;;;;;;0.00;0.00;;;;;;;25.08;54.73;102136.53;5034897;28;20092;-65
2023/08/17 06:19:03;;;;;;;0.00;0.00;;;;;;;24.92;55.22;102132.28;5034836;28;20083;-64
2023/08/17 06:21:28;;;;;;;0.00;0.00;;;;;;;24.48;56.24;102133.47;5036133;28;20041;-64
2023/08/17 06:23:54;;;;;;;0.00;0.00;;;;;;;24.66;56.60;102130.88;5016631;28;20444;-62
2023/08/17 06:26:19;;;;;;;0.03;0.03;;;;;;;24.74;55.78;102133.03;5030192;28;20045;-63
2023/08/17 06:28:45;;;;;;;0.05;0.05;;;;;;;24.72;56.01;102139.88;5027821;28;20037;-62
2023/08/17 06:31:10;;;;;;;0.00;0.00;;;;;;;24.79;56.03;102140.41;5029887;28;20501;-64
2023/08/17 06:33:35;;;;;;;0.00;0.00;;;;;;;25.37;54.49;102136.53;5029792;28;20096;-65
2023/08/17 06:36:01;;;;;;;0.00;0.00;;;;;;;24.97;56.09;102135.00;5011896;28;20508;-63
2023/08/17 06:38:26;;;;;;;0.00;0.00;;;;;;;25.62;53.59;102129.91;5012027;28;20033;-64
2023/08/17 06:40:52;;;;;;;0.00;0.00;;;;;;;24.92;55.72;102137.00;5029047;28;20017;-62
2023/08/17 06:43:18;;;;;;;0.00;0.00;;;;;;;25.23;54.79;102135.56;5029466;28;20022;-64
2023/08/17 06:45:43;;;;;;;0.00;0.00;;;;;;;24.47;57.59;102140.09;5028544;28;20095;-65
2023/08/17 06:48:09;;;;;;;0.00;0.00;;;;;;;24.70;55.62;102139.34;5029241;28;20041;-66
2023/08/17 06:50:34;;;;;;;0.00;0.00;;;;;;;25.70;53.15;102143.03;5029231;28;20040;-66
2023/08/17 06:53:01;;;;;;;0.00;0.00;;;;;;;25.06;55.16;102149.75;5028541;28;20025;-66
2023/08/17 06:55:27;;;;;;;0.00;0.00;;;;;;;25.18;53.85;102149.38;5028884;28;20014;-66
2023/08/17 06:57:52;;;;;;;0.00;0.00;;;;;;;24.89;55.10;102148.56;5029019;28;20670;-66
2023/08/17 07:00:21;;;;;;;0.00;0.00;;;;;;;25.50;53.60;102149.59;5037246;28;20481;-67
2023/08/17 07:02:47;;;;;;;0.00;0.00;;;;;;;25.41;54.01;102153.28;5048994;28;20481;-66
2023/08/17 07:05:14;;;;;;;0.10;0.10;;;;;;;25.39;53.98;102159.06;5049410;28;20029;-66
2023/08/17 07:07:40;;;;;;;0.10;0.10;;;;;;;25.15;54.85;102159.03;5068588;28;20051;-65
2023/08/17 07:10:07;;;;;;;0.10;0.10;;;;;;;25.93;52.44;102158.69;5048832;28;20033;-66
2023/08/17 07:12:32;;;;;;;0.00;0.00;;;;;;;25.41;54.04;102150.53;5049389;28;20033;-65
2023/08/17 07:14:58;;;;;;;0.00;0.00;;;;;;;26.07;52.39;102154.13;5049535;28;20036;-65
2023/08/17 07:17:23;;;;;;;0.00;0.00;;;;;;;26.51;50.61;102167.53;5049616;28;20037;-65
2023/08/17 07:19:48;;;;;;;0.10;0.10;;;;;;;26.71;50.32;102154.25;5049984;28;20032;-66
2023/08/17 07:22:16;;;;;;;0.00;0.00;;;;;;;25.17;55.06;102153.25;5049430;28;20136;-66
2023/08/17 07:24:41;;;;;;;0.00;0.00;;;;;;;25.40;54.65;102159.91;5049857;28;20033;-65
2023/08/17 07:27:07;;;;;;;0.00;0.00;;;;;;;25.68;53.84;102161.78;5049380;28;20044;-65
2023/08/17 07:29:32;;;;;;;0.00;0.00;;;;;;;25.11;55.11;102159.91;5049841;28;20087;-66
2023/08/17 07:32:01;;;;;;;0.00;0.00;;;;;;;26.01;52.59;102158.03;5049369;28;20029;-66
2023/08/17 07:34:26;;;;;;;0.00;0.00;;;;;;;25.91;52.95;102161.75;5050126;28;20024;-66
2023/08/17 07:36:52;;;;;;;0.00;0.00;;;;;;;26.18;51.61;102163.88;5049461;28;20029;-65
2023/08/17 07:39:18;;;;;;;0.00;0.00;;;;;;;25.90;53.10;102162.06;5049507;28;20025;-66
2023/08/17 07:41:44;;;;;;;0.00;0.00;;;;;;;26.80;50.30;102168.19;5049275;28;20047;-67
2023/08/17 07:44:09;;;;;;;0.00;0.00;;;;;;;26.18;50.92;102169.38;5049255;28;20029;-67
2023/08/17 07:46:34;;;;;;;0.00;0.00;;;;;;;25.95;53.07;102173.81;5049905;28;20024;-65
2023/08/17 07:49:00;;;;;;;0.00;0.00;;;;;;;25.84;52.94;102158.56;5031519;28;20056;-66
2023/08/17 07:51:25;;;;;;;0.00;0.00;;;;;;;25.71;53.93;102173.00;5048784;28;20040;-69
2023/08/17 07:53:50;;;;;;;0.00;0.00;;;;;;;26.00;52.90;102170.19;5049398;28;20044;-67
2023/08/17 07:56:16;;;;;;;0.00;0.00;;;;;;;27.10;50.07;102175.13;5055262;28;20043;-66
2023/08/17 07:58:41;;;;;;;0.00;0.00;;;;;;;27.33;48.80;102168.63;5069752;28;20073;-66
2023/08/17 08:01:07;;;;;;;0.00;0.00;;;;;;;27.42;49.30;102170.38;5069260;28;20048;-67
2023/08/17 08:03:32;;;;;;;0.00;0.00;;;;;;;26.89;51.03;102166.38;5069295;28;20430;-66
2023/08/17 08:05:57;;;;;;;0.00;0.00;;;;;;;27.19;49.76;102157.53;5053229;28;20052;-65
2023/08/17 08:08:23;;;;;;;0.00;0.00;;;;;;;27.63;48.87;102160.59;5052870;28;20496;-66
2023/08/17 08:10:48;;;;;;;0.00;0.00;;;;;;;27.26;49.22;102168.19;5035556;28;20082;-66
2023/08/17 08:13:14;;;;;;;0.00;0.00;;;;;;;27.46;48.38;102176.13;5052939;28;20037;-66
2023/08/17 08:15:39;;;;;;;0.00;0.00;;;;;;;27.85;47.63;102170.09;5052639;28;20032;-66
2023/08/17 08:18:05;;;;;;;0.00;0.00;;;;;;;27.87;47.57;102176.13;5052860;28;20605;-65
2023/08/17 08:20:30;;;;;;;0.00;0.00;;;;;;;28.23;46.36;102176.97;5053074;28;20053;-67
2023/08/17 08:22:55;;;;;;;0.00;0.00;;;;;;;27.88;48.05;102170.28;5052864;28;20098;-65
2023/08/17 08:25:21;;;;;;;0.00;0.00;;;;;;;27.24;49.05;102168.50;5053268;28;20036;-67
2023/08/17 08:27:46;;;;;;;0.00;0.00;;;;;;;27.00;49.99;102170.59;5052818;28;20037;-65
2023/08/17 08:30:12;;;;;;;0.00;0.00;;;;;;;27.28;48.95;102174.25;5052378;28;20680;-67
2023/08/17 08:32:37;;;;;;;0.00;0.00;;;;;;;27.38;48.26;102174.88;5052545;28;20033;-66
2023/08/17 08:35:03;;;;;;;0.00;0.00;;;;;;;27.99;47.03;102177.25;5052618;28;20032;-66
2023/08/17 08:37:28;;;;;;;0.00;0.00;;;;;;;28.23;45.86;102171.44;5053068;28;20408;-66
2023/08/17 08:39:55;;;;;;;0.00;0.00;;;;;;;27.58;48.11;102173.66;5052387;28;20033;-67
2023/08/17 08:42:21;;;;;;;0.00;0.00;;;;;;;28.57;45.97;102169.84;5052356;28;20434;-66
2023/08/17 08:44:47;;;;;;;0.00;0.00;;;;;;;27.17;48.91;102170.00;5051920;28;20044;-67
2023/08/17 08:47:13;;;;;;;0.00;0.00;;;;;;;28.10;46.69;102166.78;5052253;28;20082;-67
2023/08/17 08:49:40;;;;;;;0.00;0.00;;;;;;;28.73;45.62;102161.97;5052770;28;20098;-66
2023/08/17 08:52:17;;;;;;;0.00;0.00;;;;;;;28.50;45.77;102161.13;5052197;28;20037;-65
2023/08/17 08:54:45;;;;;;;0.00;0.00;;;;;;;27.75;46.95;102160.84;5052201;28;20083;-65
2023/08/17 08:57:14;;;;;;;0.00;0.00;;;;;;;27.73;47.03;102157.59;5051773;28;20040;-65
2023/08/17 08:59:44;;;;;;;0.00;0.00;;;;;;;27.83;47.06;102157.38;5052185;28;20033;-66
2023/08/17 09:02:13;;;;;;;0.00;0.00;;;;;;;28.32;46.18;102155.78;5051688;28;20068;-65
2023/08/17 09:04:39;;;;;;;0.00;0.00;;;;;;;27.82;46.80;102157.69;5052518;28;20075;-66
2023/08/17 09:07:05;;;;;;;0.00;0.00;;;;;;;28.19;46.30;102162.16;5051727;28;20432;-66
2023/08/17 09:09:31;;;;;;;0.00;0.00;;;;;;;28.53;44.91;102163.28;5052051;28;20520;-66
2023/08/17 09:11:57;;;;;;;0.00;0.00;;;;;;;28.31;45.09;102159.66;5036678;28;20163;-66
2023/08/17 09:14:22;;;;;;;0.00;0.00;;;;;;;27.15;48.63;102161.22;5031719;28;20544;-66
2023/08/17 09:16:47;;;;;;;0.00;0.00;;;;;;;27.01;48.79;102157.63;5013121;28;20034;-67
2023/08/17 09:19:14;;;;;;;0.00;0.00;;;;;;;27.62;46.98;102156.16;5031750;28;20401;-66
2023/08/17 09:21:39;;;;;;;0.00;0.00;;;;;;;27.52;47.64;102147.25;5031783;28;20034;-66
2023/08/17 09:24:07;;;;;;;0.00;0.00;;;;;;;27.43;48.17;102140.84;5031821;28;20033;-65
2023/08/17 09:26:33;;;;;;;0.00;0.00;;;;;;;27.64;47.85;102150.34;5031737;28;20040;-66
2023/08/17 09:28:59;;;;;;;0.00;0.00;;;;;;;26.94;49.71;102150.56;5031500;28;20017;-65
2023/08/17 09:31:25;;;;;;;0.00;0.00;;;;;;;28.22;46.92;102151.31;5032242;28;20405;-65
2023/08/17 09:33:51;;;;;;;0.00;0.00;;;;;;;27.80;48.01;102146.94;5031571;28;20038;-65
2023/08/17 09:36:21;;;;;;;0.00;0.00;;;;;;;27.86;48.37;102150.41;5031490;28;20037;-65
2023/08/17 09:38:48;;;;;;;;;;;;;;;28.23;47.57;102146.56;5031954;28;20030;-66
2023/08/17 09:41:13;;;;;;;0.00;0.00;;;;;;;28.71;46.15;102142.13;5031377;28;19952;-65
2023/08/17 09:43:39;;;;;;;0.00;0.00;;;;;;;28.99;45.60;102143.56;5035649;28;20021;-65
2023/08/17 09:46:04;;;;;;;0.00;0.00;;;;;;;27.55;49.12;102139.22;5051180;28;20079;-65
2023/08/17 09:48:30;;;;;;;0.00;0.00;;;;;;;27.66;49.23;102137.03;5051167;28;20489;-66
2023/08/17 09:50:56;;;;;;;0.00;0.00;;;;;;;27.41;49.45;102134.78;5051130;28;20029;-67
2023/08/17 09:53:22;;;;;;;0.00;0.00;;;;;;;28.42;46.95;102136.97;5051111;28;20052;-66
2023/08/17 09:55:48;;;;;;;0.00;0.00;;;;;;;28.35;47.29;102144.06;5033361;28;20094;-67
2023/08/17 09:58:16;;;;;;;0.00;0.00;;;;;;;28.17;47.61;102142.28;5035603;28;20037;-66
2023/08/17 10:00:49;;;;;;;0.00;0.00;;;;;;;27.41;50.00;102134.78;5031040;28;20033;-65
2023/08/17 10:03:15;;;;;;;0.00;0.00;;;;;;;28.45;47.11;102135.53;5030923;28;20034;-66
2023/08/17 10:05:45;;;;;;;0.00;0.00;;;;;;;27.77;47.89;102139.25;5030965;28;20377;-66
2023/08/17 10:08:12;;;;;;;0.00;0.00;;;;;;;27.98;47.78;102136.09;5047474;28;20570;-65
2023/08/17 10:10:43;;;;;;;0.00;0.00;;;;;;;28.19;47.60;102143.63;5051167;28;20082;-65
2023/08/17 10:13:11;;;;;;;0.00;0.00;;;;;;;28.29;47.74;102140.63;5050202;28;20044;-67
2023/08/17 10:15:39;;;;;;;0.00;0.00;;;;;;;28.39;46.82;102142.31;5050260;28;20029;-65
2023/08/17 10:18:25;;;;;;;0.00;0.00;;;;;;;28.80;45.66;102142.16;5050599;28;20036;-64
2023/08/17 10:21:01;;;;;;;0.00;0.00;;;;;;;28.72;46.27;102135.44;5050689;28;20029;-65
2023/08/17 10:23:27;;;;;;;0.00;0.00;;;;;;;28.02;48.03;102129.66;5050666;28;20044;-66
2023/08/17 10:25:53;;;;;;;0.00;0.00;;;;;;;27.75;48.48;102129.66;5050472;28;20036;-67
2023/08/17 10:28:21;;;;;;;0.00;0.00;;;;;;;28.68;46.41;102131.66;5050713;28;20025;-67
2023/08/17 10:30:48;;;;;;;0.00;0.00;;;;;;;28.15;46.94;102127.97;5050431;28;20029;-66
2023/08/17 10:33:15;;;;;;;0.00;0.00;;;;;;;28.42;46.22;102125.13;5050354;28;20033;-66
2023/08/17 10:35:41;;;;;;;0.00;0.00;;;;;;;28.61;46.67;102121.06;5050109;28;20037;-66
2023/08/17 10:38:07;;;;;;;0.00;0.00;;;;;;;28.11;48.19;102118.69;5050248;28;20027;-66
2023/08/17 10:40:37;;;;;;;0.00;0.00;;;;;;;28.67;46.45;102112.63;5050781;28;20021;-65
2023/08/17 10:43:03;;;;;;;0.00;0.00;;;;;;;28.39;46.45;102117.44;5050259;28;20037;-66
2023/08/17 10:45:30;;;;;;;0.00;0.00;;;;;;;28.18;47.94;102116.28;5059586;28;20029;-64
2023/08/17 10:48:08;;;;;;;0.00;0.00;;;;;;;29.20;45.21;102116.19;5052199;28;20032;-64
2023/08/17 10:50:34;;;;;;;0.00;0.00;;;;;;;29.44;44.50;102108.31;5070120;28;20037;-66
2023/08/17 10:53:11;;;;;;;0.00;0.00;;;;;;;28.87;46.62;102101.84;5066486;28;20060;-66
2023/08/17 10:55:37;;;;;;;0.00;0.00;;;;;;;28.35;47.49;102106.19;5050784;28;20476;-65
2023/08/17 10:58:04;;;;;;;0.00;0.00;;;;;;;29.20;45.71;102102.34;5049900;28;20144;-65
2023/08/17 11:00:37;;;;;;;0.00;0.00;;;;;;;28.48;46.39;102105.28;5049793;28;20544;-66
2023/08/17 11:03:10;;;;;;;0.00;0.00;;;;;;;29.44;44.96;102102.75;5049846;28;20036;-65
2023/08/17 11:05:38;;;;;;;0.00;0.00;;;;;;;28.64;46.66;102097.44;5049085;28;20476;-67
2023/08/17 11:08:05;;;;;;;0.00;0.00;;;;;;;29.55;44.96;102100.50;5050260;28;20504;-65
2023/08/17 11:10:31;;;;;;;0.00;0.00;;;;;;;29.49;44.62;102105.38;5066260;28;20108;-66
2023/08/17 11:13:01;;;;;;;0.00;0.00;;;;;;;28.67;45.78;102107.09;5048047;28;20045;-65
2023/08/17 11:15:37;;;;;;;0.00;0.00;;;;;;;29.74;44.13;102101.06;5049182;28;20098;-65
2023/08/17 11:18:04;;;;;;;0.00;0.00;;;;;;;28.57;46.38;102099.88;5049591;28;20806;-67
2023/08/17 11:20:29;;;;;;;0.00;0.00;;;;;;;29.03;45.48;102103.03;5053359;28;20529;-65